sensor_id;sensor_type;location;lat;lon;timestamp;temperature;humidity
2571;DHT22;1295;51.130;6.732;2023-05-07T00:01:53;17.90;99.90
2571;DHT22;1295;51.130;6.732;2023-05-07T00:04:20;17.90;99.90
2571;DHT22;1295;51.130;6.732;2023-05-07T00:06:46;17.90;99.90
2571;DHT22;1295;51.130;6.732;2023-05-07T00:09:12;17.90;99.90
2571;DHT22;1295;51.130;6.732;2023-05-07T00:11:37;17.90;99.90
2571;DHT22;1295;51.130;6.732;2023-05-07T00:14:03;17.90;99.90
2571;DHT22;1295;51.130;6.732;2023-05-07T00:16:29;17.90;99.90
2571;DHT22;1295;51.130;6.732;2023-05-07T00:18:55;17.80;99.90
2571;DHT22;1295;51.130;6.732;2023-05-07T00:21:21;17.80;99.90
2571;DHT22;1295;51.130;6.732;2023-05-07T00:23:47;17.80;99.90
2571;DHT22;1295;51.130;6.732;2023-05-07T00:26:13;17.80;99.90
2571;DHT22;1295;51.130;6.732;2023-05-07T00:28:39;17.80;99.90
2571;DHT22;1295;51.130;6.732;2023-05-07T00:31:05;17.80;99.90
2571;DHT22;1295;51.130;6.732;2023-05-07T00:33:31;17.80;99.90
2571;DHT22;1295;51.130;6.732;2023-05-07T00:35:57;17.80;99.90
2571;DHT22;1295;51.130;6.732;2023-05-07T00:38:24;17.80;99.90
2571;DHT22;1295;51.130;6.732;2023-05-07T00:40:50;17.80;99.90
2571;DHT22;1295;51.130;6.732;2023-05-07T00:43:16;17.80;99.90
2571;DHT22;1295;51.130;6.732;2023-05-07T00:45:42;17.80;99.90
2571;DHT22;1295;51.130;6.732;2023-05-07T00:48:08;17.80;99.90
2571;DHT22;1295;51.130;6.732;2023-05-07T00:50:33;17.80;99.90
2571;DHT22;1295;51.130;6.732;2023-05-07T00:52:59;17.80;99.90
2571;DHT22;1295;51.130;6.732;2023-05-07T00:55:26;17.80;99.90
2571;DHT22;1295;51.130;6.732;2023-05-07T00:57:52;17.70;99.90
2571;DHT22;1295;51.130;6.732;2023-05-07T01:00:18;17.70;99.90
2571;DHT22;1295;51.130;6.732;2023-05-07T01:02:43;17.80;99.90
2571;DHT22;1295;51.130;6.732;2023-05-07T01:05:11;17.70;99.90
2571;DHT22;1295;51.130;6.732;2023-05-07T01:07:37;17.70;99.90
2571;DHT22;1295;51.130;6.732;2023-05-07T01:10:03;17.70;99.90
2571;DHT22;1295;51.130;6.732;2023-05-07T01:12:28;17.70;99.90
2571;DHT22;1295;51.130;6.732;2023-05-07T01:14:54;17.70;99.90
2571;DHT22;1295;51.130;6.732;2023-05-07T01:17:20;17.70;99.90
2571;DHT22;1295;51.130;6.732;2023-05-07T01:19:46;17.60;99.90
2571;DHT22;1295;51.130;6.732;2023-05-07T01:22:12;17.70;99.90
2571;DHT22;1295;51.130;6.732;2023-05-07T01:24:38;17.60;99.90
2571;DHT22;1295;51.130;6.732;2023-05-07T01:27:04;17.60;99.90
2571;DHT22;1295;51.130;6.732;2023-05-07T01:29:36;17.60;99.90
2571;DHT22;1295;51.130;6.732;2023-05-07T01:32:02;17.60;99.90
2571;DHT22;1295;51.130;6.732;2023-05-07T01:34:29;17.60;99.90
2571;DHT22;1295;51.130;6.732;2023-05-07T01:36:59;17.60;99.90
2571;DHT22;1295;51.130;6.732;2023-05-07T01:39:25;17.60;99.90
2571;DHT22;1295;51.130;6.732;2023-05-07T01:41:51;17.60;99.90
2571;DHT22;1295;51.130;6.732;2023-05-07T01:44:16;17.60;99.90
2571;DHT22;1295;51.130;6.732;2023-05-07T01:46:42;17.60;99.90
2571;DHT22;1295;51.130;6.732;2023-05-07T01:49:08;17.60;99.90
2571;DHT22;1295;51.130;6.732;2023-05-07T01:51:34;17.60;99.90
2571;DHT22;1295;51.130;6.732;2023-05-07T01:54:00;17.50;99.90
2571;DHT22;1295;51.130;6.732;2023-05-07T01:56:27;17.50;99.90
2571;DHT22;1295;51.130;6.732;2023-05-07T01:58:52;17.50;99.90
2571;DHT22;1295;51.130;6.732;2023-05-07T02:01:18;17.50;99.90
2571;DHT22;1295;51.130;6.732;2023-05-07T02:03:44;17.50;99.90
2571;DHT22;1295;51.130;6.732;2023-05-07T02:06:10;17.50;99.90
2571;DHT22;1295;51.130;6.732;2023-05-07T02:08:35;17.50;99.90
2571;DHT22;1295;51.130;6.732;2023-05-07T02:11:01;17.50;99.90
2571;DHT22;1295;51.130;6.732;2023-05-07T02:13:29;17.50;99.90
2571;DHT22;1295;51.130;6.732;2023-05-07T02:15:59;17.50;99.90
2571;DHT22;1295;51.130;6.732;2023-05-07T02:18:26;17.50;99.90
2571;DHT22;1295;51.130;6.732;2023-05-07T02:20:51;17.50;99.90
2571;DHT22;1295;51.130;6.732;2023-05-07T02:23:17;17.50;99.90
2571;DHT22;1295;51.130;6.732;2023-05-07T02:25:43;17.50;99.90
2571;DHT22;1295;51.130;6.732;2023-05-07T02:28:08;17.40;99.90
2571;DHT22;1295;51.130;6.732;2023-05-07T02:30:35;17.50;99.90
2571;DHT22;1295;51.130;6.732;2023-05-07T02:33:00;17.40;99.90
2571;DHT22;1295;51.130;6.732;2023-05-07T02:35:26;17.40;99.90
2571;DHT22;1295;51.130;6.732;2023-05-07T02:37:52;17.40;99.90
2571;DHT22;1295;51.130;6.732;2023-05-07T02:40:18;17.40;99.90
2571;DHT22;1295;51.130;6.732;2023-05-07T02:42:44;17.40;99.90
2571;DHT22;1295;51.130;6.732;2023-05-07T02:45:10;17.40;99.90
2571;DHT22;1295;51.130;6.732;2023-05-07T02:47:36;17.40;99.90
2571;DHT22;1295;51.130;6.732;2023-05-07T02:50:03;17.30;99.90
2571;DHT22;1295;51.130;6.732;2023-05-07T02:52:29;17.30;99.90
2571;DHT22;1295;51.130;6.732;2023-05-07T02:54:55;17.30;99.90
2571;DHT22;1295;51.130;6.732;2023-05-07T02:57:21;17.30;99.90
2571;DHT22;1295;51.130;6.732;2023-05-07T02:59:47;17.30;99.90
2571;DHT22;1295;51.130;6.732;2023-05-07T03:02:13;17.30;99.90
2571;DHT22;1295;51.130;6.732;2023-05-07T03:04:39;17.30;99.90
2571;DHT22;1295;51.130;6.732;2023-05-07T03:07:04;17.30;99.90
2571;DHT22;1295;51.130;6.732;2023-05-07T03:09:31;17.30;99.90
2571;DHT22;1295;51.130;6.732;2023-05-07T03:11:57;17.30;99.90
2571;DHT22;1295;51.130;6.732;2023-05-07T03:14:22;17.30;99.90
2571;DHT22;1295;51.130;6.732;2023-05-07T03:16:48;17.20;99.90
2571;DHT22;1295;51.130;6.732;2023-05-07T03:19:14;17.20;99.90
2571;DHT22;1295;51.130;6.732;2023-05-07T03:21:46;17.30;99.90
2571;DHT22;1295;51.130;6.732;2023-05-07T03:24:12;17.20;99.90
2571;DHT22;1295;51.130;6.732;2023-05-07T03:26:39;17.20;99.90
2571;DHT22;1295;51.130;6.732;2023-05-07T03:29:05;17.20;99.90
2571;DHT22;1295;51.130;6.732;2023-05-07T03:31:31;17.20;99.90
2571;DHT22;1295;51.130;6.732;2023-05-07T03:33:57;17.20;99.90
2571;DHT22;1295;51.130;6.732;2023-05-07T03:36:23;17.20;99.90
2571;DHT22;1295;51.130;6.732;2023-05-07T03:38:49;17.20;99.90
2571;DHT22;1295;51.130;6.732;2023-05-07T03:41:14;17.20;99.90
2571;DHT22;1295;51.130;6.732;2023-05-07T03:43:40;17.20;99.90
2571;DHT22;1295;51.130;6.732;2023-05-07T03:46:06;17.20;99.90
2571;DHT22;1295;51.130;6.732;2023-05-07T03:48:32;17.10;99.90
2571;DHT22;1295;51.130;6.732;2023-05-07T03:50:57;17.20;99.90
2571;DHT22;1295;51.130;6.732;2023-05-07T03:53:24;17.10;99.90
2571;DHT22;1295;51.130;6.732;2023-05-07T03:55:49;17.10;99.90
2571;DHT22;1295;51.130;6.732;2023-05-07T03:58:15;17.10;99.90
2571;DHT22;1295;51.130;6.732;2023-05-07T04:00:41;17.10;99.90
2571;DHT22;1295;51.130;6.732;2023-05-07T04:03:07;17.10;99.90
2571;DHT22;1295;51.130;6.732;2023-05-07T04:05:32;17.10;99.90
2571;DHT22;1295;51.130;6.732;2023-05-07T04:07:58;17.10;99.90
2571;DHT22;1295;51.130;6.732;2023-05-07T04:10:24;17.10;99.90
2571;DHT22;1295;51.130;6.732;2023-05-07T04:12:50;17.10;99.90
2571;DHT22;1295;51.130;6.732;2023-05-07T04:15:16;17.10;99.90
2571;DHT22;1295;51.130;6.732;2023-05-07T04:17:42;17.10;99.90
2571;DHT22;1295;51.130;6.732;2023-05-07T04:20:10;17.00;99.90
2571;DHT22;1295;51.130;6.732;2023-05-07T04:22:38;17.00;99.90
2571;DHT22;1295;51.130;6.732;2023-05-07T04:25:05;17.10;99.90
2571;DHT22;1295;51.130;6.732;2023-05-07T04:27:32;17.00;99.90
2571;DHT22;1295;51.130;6.732;2023-05-07T04:29:57;17.00;99.90
2571;DHT22;1295;51.130;6.732;2023-05-07T04:32:30;17.00;99.90
2571;DHT22;1295;51.130;6.732;2023-05-07T04:34:56;17.00;99.90
2571;DHT22;1295;51.130;6.732;2023-05-07T04:37:21;17.00;99.90
2571;DHT22;1295;51.130;6.732;2023-05-07T04:39:47;17.00;99.90
2571;DHT22;1295;51.130;6.732;2023-05-07T04:42:15;17.00;99.90
2571;DHT22;1295;51.130;6.732;2023-05-07T04:44:40;17.00;99.90
2571;DHT22;1295;51.130;6.732;2023-05-07T04:47:06;17.00;99.90
2571;DHT22;1295;51.130;6.732;2023-05-07T04:49:32;17.00;99.90
2571;DHT22;1295;51.130;6.732;2023-05-07T04:52:04;17.00;99.90
2571;DHT22;1295;51.130;6.732;2023-05-07T04:54:35;17.00;99.90
2571;DHT22;1295;51.130;6.732;2023-05-07T04:57:02;17.00;99.90
2571;DHT22;1295;51.130;6.732;2023-05-07T04:59:26;17.00;99.90
2571;DHT22;1295;51.130;6.732;2023-05-07T05:01:53;16.90;99.90
2571;DHT22;1295;51.130;6.732;2023-05-07T05:04:18;16.90;99.90
2571;DHT22;1295;51.130;6.732;2023-05-07T05:06:45;16.90;99.90
2571;DHT22;1295;51.130;6.732;2023-05-07T05:09:10;17.00;99.90
2571;DHT22;1295;51.130;6.732;2023-05-07T05:11:36;16.90;99.90
2571;DHT22;1295;51.130;6.732;2023-05-07T05:14:02;16.90;99.90
2571;DHT22;1295;51.130;6.732;2023-05-07T05:16:28;16.90;99.90
2571;DHT22;1295;51.130;6.732;2023-05-07T05:18:53;16.90;99.90
2571;DHT22;1295;51.130;6.732;2023-05-07T05:21:19;16.90;99.90
2571;DHT22;1295;51.130;6.732;2023-05-07T05:23:45;16.90;99.90
2571;DHT22;1295;51.130;6.732;2023-05-07T05:26:10;16.90;99.90
2571;DHT22;1295;51.130;6.732;2023-05-07T05:28:36;16.90;99.90
2571;DHT22;1295;51.130;6.732;2023-05-07T05:31:03;16.90;99.90
2571;DHT22;1295;51.130;6.732;2023-05-07T05:33:33;16.90;99.90
2571;DHT22;1295;51.130;6.732;2023-05-07T05:36:10;16.90;99.90
2571;DHT22;1295;51.130;6.732;2023-05-07T05:38:36;16.90;99.90
2571;DHT22;1295;51.130;6.732;2023-05-07T05:41:02;16.90;99.90
2571;DHT22;1295;51.130;6.732;2023-05-07T05:43:27;16.90;99.90
2571;DHT22;1295;51.130;6.732;2023-05-07T05:45:55;16.90;99.90
2571;DHT22;1295;51.130;6.732;2023-05-07T05:48:19;16.90;99.90
2571;DHT22;1295;51.130;6.732;2023-05-07T05:50:45;16.90;99.90
2571;DHT22;1295;51.130;6.732;2023-05-07T05:53:11;16.90;99.90
2571;DHT22;1295;51.130;6.732;2023-05-07T05:55:37;16.90;99.90
2571;DHT22;1295;51.130;6.732;2023-05-07T05:58:03;16.90;99.90
2571;DHT22;1295;51.130;6.732;2023-05-07T06:00:29;16.90;99.90
2571;DHT22;1295;51.130;6.732;2023-05-07T06:02:54;16.90;99.90
2571;DHT22;1295;51.130;6.732;2023-05-07T06:05:21;16.90;99.90
2571;DHT22;1295;51.130;6.732;2023-05-07T06:07:46;16.80;99.90
2571;DHT22;1295;51.130;6.732;2023-05-07T06:10:12;16.90;99.90
2571;DHT22;1295;51.130;6.732;2023-05-07T06:12:38;16.90;99.90
2571;DHT22;1295;51.130;6.732;2023-05-07T06:15:04;16.80;99.90
2571;DHT22;1295;51.130;6.732;2023-05-07T06:17:30;16.80;99.90
2571;DHT22;1295;51.130;6.732;2023-05-07T06:19:56;16.90;99.90
2571;DHT22;1295;51.130;6.732;2023-05-07T06:22:22;16.90;99.90
2571;DHT22;1295;51.130;6.732;2023-05-07T06:24:47;16.90;99.90
2571;DHT22;1295;51.130;6.732;2023-05-07T06:27:14;16.90;99.90
2571;DHT22;1295;51.130;6.732;2023-05-07T06:29:40;16.90;99.90
2571;DHT22;1295;51.130;6.732;2023-05-07T06:32:06;16.90;99.90
2571;DHT22;1295;51.130;6.732;2023-05-07T06:34:31;16.80;99.90
2571;DHT22;1295;51.130;6.732;2023-05-07T06:36:57;16.80;99.90
2571;DHT22;1295;51.130;6.732;2023-05-07T06:39:23;16.90;99.90
2571;DHT22;1295;51.130;6.732;2023-05-07T06:41:48;16.90;99.90
2571;DHT22;1295;51.130;6.732;2023-05-07T06:44:15;16.60;99.90
2571;DHT22;1295;51.130;6.732;2023-05-07T06:46:41;16.50;99.90
2571;DHT22;1295;51.130;6.732;2023-05-07T06:49:06;16.80;99.90
2571;DHT22;1295;51.130;6.732;2023-05-07T06:51:32;16.80;99.90
2571;DHT22;1295;51.130;6.732;2023-05-07T06:53:59;16.90;99.90
2571;DHT22;1295;51.130;6.732;2023-05-07T06:56:30;16.80;99.90
2571;DHT22;1295;51.130;6.732;2023-05-07T06:58:56;16.80;99.90
2571;DHT22;1295;51.130;6.732;2023-05-07T07:01:22;16.80;99.90
2571;DHT22;1295;51.130;6.732;2023-05-07T07:03:47;16.90;99.90
2571;DHT22;1295;51.130;6.732;2023-05-07T07:06:13;16.90;99.90
2571;DHT22;1295;51.130;6.732;2023-05-07T07:08:39;16.90;99.90
2571;DHT22;1295;51.130;6.732;2023-05-07T07:11:05;16.90;99.90
2571;DHT22;1295;51.130;6.732;2023-05-07T07:13:32;17.00;99.90
2571;DHT22;1295;51.130;6.732;2023-05-07T07:15:57;16.90;99.90
2571;DHT22;1295;51.130;6.732;2023-05-07T07:18:23;17.00;99.90
2571;DHT22;1295;51.130;6.732;2023-05-07T07:20:50;17.00;99.90
2571;DHT22;1295;51.130;6.732;2023-05-07T07:23:16;17.00;99.90
2571;DHT22;1295;51.130;6.732;2023-05-07T07:25:42;17.00;99.90
2571;DHT22;1295;51.130;6.732;2023-05-07T07:28:08;17.00;99.90
2571;DHT22;1295;51.130;6.732;2023-05-07T07:30:34;17.00;99.90
2571;DHT22;1295;51.130;6.732;2023-05-07T07:32:59;17.10;99.90
2571;DHT22;1295;51.130;6.732;2023-05-07T07:35:26;17.10;99.90
2571;DHT22;1295;51.130;6.732;2023-05-07T07:37:52;17.20;99.90
2571;DHT22;1295;51.130;6.732;2023-05-07T07:40:18;17.30;99.90
2571;DHT22;1295;51.130;6.732;2023-05-07T07:42:44;17.30;99.90
2571;DHT22;1295;51.130;6.732;2023-05-07T07:45:09;17.20;99.90
2571;DHT22;1295;51.130;6.732;2023-05-07T07:47:35;17.20;99.90
2571;DHT22;1295;51.130;6.732;2023-05-07T07:50:01;17.30;99.90
2571;DHT22;1295;51.130;6.732;2023-05-07T07:52:27;17.30;99.90
2571;DHT22;1295;51.130;6.732;2023-05-07T07:54:53;17.50;99.90
2571;DHT22;1295;51.130;6.732;2023-05-07T07:57:19;17.40;99.90
2571;DHT22;1295;51.130;6.732;2023-05-07T07:59:45;17.50;99.90
2571;DHT22;1295;51.130;6.732;2023-05-07T08:02:10;17.80;99.90
2571;DHT22;1295;51.130;6.732;2023-05-07T08:04:37;17.50;99.90
2571;DHT22;1295;51.130;6.732;2023-05-07T08:07:03;17.50;99.90
2571;DHT22;1295;51.130;6.732;2023-05-07T08:09:34;17.80;99.90
2571;DHT22;1295;51.130;6.732;2023-05-07T08:12:10;17.90;99.90
2571;DHT22;1295;51.130;6.732;2023-05-07T08:14:36;18.00;99.90
2571;DHT22;1295;51.130;6.732;2023-05-07T08:17:01;17.80;99.90
2571;DHT22;1295;51.130;6.732;2023-05-07T08:19:27;18.00;99.90
2571;DHT22;1295;51.130;6.732;2023-05-07T08:21:53;18.00;99.90
2571;DHT22;1295;51.130;6.732;2023-05-07T08:24:18;17.90;99.90
2571;DHT22;1295;51.130;6.732;2023-05-07T08:26:45;18.30;99.90
2571;DHT22;1295;51.130;6.732;2023-05-07T08:29:11;18.30;99.90
2571;DHT22;1295;51.130;6.732;2023-05-07T08:31:37;18.70;99.90
2571;DHT22;1295;51.130;6.732;2023-05-07T08:34:03;18.70;99.90
2571;DHT22;1295;51.130;6.732;2023-05-07T08:36:34;18.20;99.90
2571;DHT22;1295;51.130;6.732;2023-05-07T08:38:59;18.00;99.90
2571;DHT22;1295;51.130;6.732;2023-05-07T08:41:25;17.90;99.90
2571;DHT22;1295;51.130;6.732;2023-05-07T08:43:51;18.10;99.90
2571;DHT22;1295;51.130;6.732;2023-05-07T08:46:19;18.20;99.90
2571;DHT22;1295;51.130;6.732;2023-05-07T08:48:44;18.20;99.90
2571;DHT22;1295;51.130;6.732;2023-05-07T08:51:12;18.10;99.90
2571;DHT22;1295;51.130;6.732;2023-05-07T08:53:35;18.60;99.90
2571;DHT22;1295;51.130;6.732;2023-05-07T08:56:01;18.60;99.90
2571;DHT22;1295;51.130;6.732;2023-05-07T08:58:26;18.30;99.90
2571;DHT22;1295;51.130;6.732;2023-05-07T09:00:52;18.00;99.90
2571;DHT22;1295;51.130;6.732;2023-05-07T09:03:18;18.20;99.90
2571;DHT22;1295;51.130;6.732;2023-05-07T09:05:44;18.20;99.90
2571;DHT22;1295;51.130;6.732;2023-05-07T09:08:09;17.90;99.90
2571;DHT22;1295;51.130;6.732;2023-05-07T09:10:35;17.80;99.90
2571;DHT22;1295;51.130;6.732;2023-05-07T09:13:02;17.70;99.90
2571;DHT22;1295;51.130;6.732;2023-05-07T09:15:28;18.30;99.90
2571;DHT22;1295;51.130;6.732;2023-05-07T09:17:53;18.30;99.90
2571;DHT22;1295;51.130;6.732;2023-05-07T09:20:19;18.30;99.90
2571;DHT22;1295;51.130;6.732;2023-05-07T09:22:45;18.20;99.90
2571;DHT22;1295;51.130;6.732;2023-05-07T09:25:10;18.90;99.90
2571;DHT22;1295;51.130;6.732;2023-05-07T09:27:36;18.30;99.90
2571;DHT22;1295;51.130;6.732;2023-05-07T09:30:03;18.20;99.90
2571;DHT22;1295;51.130;6.732;2023-05-07T09:32:35;18.00;99.90
2571;DHT22;1295;51.130;6.732;2023-05-07T09:35:06;18.00;99.90
2571;DHT22;1295;51.130;6.732;2023-05-07T09:37:32;17.90;99.90
2571;DHT22;1295;51.130;6.732;2023-05-07T09:39:58;18.20;99.90
2571;DHT22;1295;51.130;6.732;2023-05-07T09:42:24;18.20;99.90
2571;DHT22;1295;51.130;6.732;2023-05-07T09:44:50;18.10;99.90
2571;DHT22;1295;51.130;6.732;2023-05-07T09:47:18;18.30;99.90
2571;DHT22;1295;51.130;6.732;2023-05-07T09:49:41;18.30;99.90
2571;DHT22;1295;51.130;6.732;2023-05-07T09:52:07;19.10;99.90
2571;DHT22;1295;51.130;6.732;2023-05-07T09:54:33;19.20;99.90
2571;DHT22;1295;51.130;6.732;2023-05-07T09:56:59;18.80;99.90
2571;DHT22;1295;51.130;6.732;2023-05-07T09:59:24;18.60;99.90
2571;DHT22;1295;51.130;6.732;2023-05-07T10:01:50;18.70;99.90
2571;DHT22;1295;51.130;6.732;2023-05-07T10:04:16;20.10;99.90
2571;DHT22;1295;51.130;6.732;2023-05-07T10:06:41;20.40;99.90
2571;DHT22;1295;51.130;6.732;2023-05-07T10:09:08;20.60;99.90
2571;DHT22;1295;51.130;6.732;2023-05-07T10:11:34;20.60;99.90
2571;DHT22;1295;51.130;6.732;2023-05-07T10:13:59;20.10;99.90
2571;DHT22;1295;51.130;6.732;2023-05-07T10:16:25;19.10;99.90
2571;DHT22;1295;51.130;6.732;2023-05-07T10:18:51;19.10;99.90
2571;DHT22;1295;51.130;6.732;2023-05-07T10:21:18;20.10;99.90
2571;DHT22;1295;51.130;6.732;2023-05-07T10:23:45;20.70;99.90
2571;DHT22;1295;51.130;6.732;2023-05-07T10:26:10;19.90;99.90
2571;DHT22;1295;51.130;6.732;2023-05-07T10:28:38;20.70;99.90
2571;DHT22;1295;51.130;6.732;2023-05-07T10:33:38;22.00;99.90
2571;DHT22;1295;51.130;6.732;2023-05-07T10:36:04;20.40;99.90
2571;DHT22;1295;51.130;6.732;2023-05-07T10:38:29;19.60;99.90
2571;DHT22;1295;51.130;6.732;2023-05-07T10:40:55;19.70;99.90
2571;DHT22;1295;51.130;6.732;2023-05-07T10:43:21;19.50;99.90
2571;DHT22;1295;51.130;6.732;2023-05-07T10:48:25;19.00;99.90
2571;DHT22;1295;51.130;6.732;2023-05-07T10:50:50;18.90;99.90
2571;DHT22;1295;51.130;6.732;2023-05-07T10:53:23;18.80;99.90
2571;DHT22;1295;51.130;6.732;2023-05-07T10:55:50;18.80;99.90
2571;DHT22;1295;51.130;6.732;2023-05-07T10:58:25;19.00;99.90
2571;DHT22;1295;51.130;6.732;2023-05-07T11:00:56;19.40;99.90
2571;DHT22;1295;51.130;6.732;2023-05-07T11:03:21;19.30;99.90
2571;DHT22;1295;51.130;6.732;2023-05-07T11:05:47;19.90;99.90
2571;DHT22;1295;51.130;6.732;2023-05-07T11:08:13;19.00;99.90
2571;DHT22;1295;51.130;6.732;2023-05-07T11:10:49;20.10;99.90
2571;DHT22;1295;51.130;6.732;2023-05-07T11:13:14;20.20;99.90
2571;DHT22;1295;51.130;6.732;2023-05-07T11:15:40;20.10;99.90
2571;DHT22;1295;51.130;6.732;2023-05-07T11:18:05;20.30;99.90
2571;DHT22;1295;51.130;6.732;2023-05-07T11:25:48;20.80;99.90
2571;DHT22;1295;51.130;6.732;2023-05-07T11:28:14;20.80;99.90
2571;DHT22;1295;51.130;6.732;2023-05-07T11:30:41;20.90;99.90
2571;DHT22;1295;51.130;6.732;2023-05-07T11:33:05;21.20;99.90
2571;DHT22;1295;51.130;6.732;2023-05-07T11:35:31;19.70;99.90
2571;DHT22;1295;51.130;6.732;2023-05-07T11:37:59;20.10;99.90
2571;DHT22;1295;51.130;6.732;2023-05-07T11:40:23;21.20;99.90
2571;DHT22;1295;51.130;6.732;2023-05-07T11:42:49;20.30;99.90
2571;DHT22;1295;51.130;6.732;2023-05-07T11:45:22;21.10;99.90
2571;DHT22;1295;51.130;6.732;2023-05-07T11:47:41;21.10;99.90
2571;DHT22;1295;51.130;6.732;2023-05-07T11:50:07;21.30;99.90
2571;DHT22;1295;51.130;6.732;2023-05-07T11:52:34;19.80;99.90
2571;DHT22;1295;51.130;6.732;2023-05-07T11:55:01;19.20;99.90
2571;DHT22;1295;51.130;6.732;2023-05-07T11:57:26;19.20;99.90
2571;DHT22;1295;51.130;6.732;2023-05-07T11:59:57;19.10;99.90
2571;DHT22;1295;51.130;6.732;2023-05-07T12:02:22;20.10;99.90
2571;DHT22;1295;51.130;6.732;2023-05-07T12:04:48;19.80;99.90
2571;DHT22;1295;51.130;6.732;2023-05-07T12:07:14;19.50;99.90
2571;DHT22;1295;51.130;6.732;2023-05-07T12:09:40;19.50;99.90
2571;DHT22;1295;51.130;6.732;2023-05-07T12:12:06;19.90;99.90
2571;DHT22;1295;51.130;6.732;2023-05-07T12:14:32;20.20;99.90
2571;DHT22;1295;51.130;6.732;2023-05-07T12:16:59;19.40;99.90
2571;DHT22;1295;51.130;6.732;2023-05-07T12:19:24;19.40;99.90
2571;DHT22;1295;51.130;6.732;2023-05-07T12:21:50;20.90;99.90
2571;DHT22;1295;51.130;6.732;2023-05-07T12:24:16;20.80;99.90
2571;DHT22;1295;51.130;6.732;2023-05-07T12:26:41;20.40;99.90
2571;DHT22;1295;51.130;6.732;2023-05-07T12:29:07;20.20;99.90
2571;DHT22;1295;51.130;6.732;2023-05-07T12:31:34;20.10;99.90
2571;DHT22;1295;51.130;6.732;2023-05-07T12:34:00;20.10;99.90
2571;DHT22;1295;51.130;6.732;2023-05-07T12:36:25;19.90;99.90
2571;DHT22;1295;51.130;6.732;2023-05-07T12:38:51;19.70;99.90
2571;DHT22;1295;51.130;6.732;2023-05-07T12:41:17;19.90;99.90
2571;DHT22;1295;51.130;6.732;2023-05-07T12:43:44;20.50;99.90
2571;DHT22;1295;51.130;6.732;2023-05-07T12:46:09;20.50;99.90
2571;DHT22;1295;51.130;6.732;2023-05-07T12:48:37;21.50;99.90
2571;DHT22;1295;51.130;6.732;2023-05-07T12:51:02;21.40;99.90
2571;DHT22;1295;51.130;6.732;2023-05-07T12:53:30;21.40;99.90
2571;DHT22;1295;51.130;6.732;2023-05-07T12:55:55;21.50;99.90
2571;DHT22;1295;51.130;6.732;2023-05-07T12:58:21;21.60;99.90
2571;DHT22;1295;51.130;6.732;2023-05-07T13:00:47;21.50;99.90
2571;DHT22;1295;51.130;6.732;2023-05-07T13:03:12;21.80;99.90
2571;DHT22;1295;51.130;6.732;2023-05-07T13:05:38;21.80;99.90
2571;DHT22;1295;51.130;6.732;2023-05-07T13:08:03;21.80;99.90
2571;DHT22;1295;51.130;6.732;2023-05-07T13:10:35;21.90;99.90
2571;DHT22;1295;51.130;6.732;2023-05-07T13:13:11;21.90;99.90
2571;DHT22;1295;51.130;6.732;2023-05-07T13:15:37;21.60;99.90
2571;DHT22;1295;51.130;6.732;2023-05-07T13:18:03;21.70;99.90
2571;DHT22;1295;51.130;6.732;2023-05-07T13:20:28;21.60;99.90
2571;DHT22;1295;51.130;6.732;2023-05-07T13:22:54;21.60;99.90
2571;DHT22;1295;51.130;6.732;2023-05-07T13:25:20;21.70;99.90
2571;DHT22;1295;51.130;6.732;2023-05-07T13:27:46;21.50;99.90
2571;DHT22;1295;51.130;6.732;2023-05-07T13:30:11;21.40;99.90
2571;DHT22;1295;51.130;6.732;2023-05-07T13:32:38;21.30;99.90
2571;DHT22;1295;51.130;6.732;2023-05-07T13:35:05;21.30;99.90
2571;DHT22;1295;51.130;6.732;2023-05-07T13:37:31;21.40;99.90
2571;DHT22;1295;51.130;6.732;2023-05-07T13:39:57;21.40;99.90
2571;DHT22;1295;51.130;6.732;2023-05-07T13:42:23;21.50;99.90
2571;DHT22;1295;51.130;6.732;2023-05-07T13:44:49;21.50;99.90
2571;DHT22;1295;51.130;6.732;2023-05-07T13:47:15;21.70;99.90
2571;DHT22;1295;51.130;6.732;2023-05-07T13:49:41;21.40;99.90
2571;DHT22;1295;51.130;6.732;2023-05-07T13:52:07;21.40;99.90
2571;DHT22;1295;51.130;6.732;2023-05-07T13:54:33;21.10;99.90
2571;DHT22;1295;51.130;6.732;2023-05-07T13:56:58;21.10;99.90
2571;DHT22;1295;51.130;6.732;2023-05-07T13:59:24;20.70;99.90
2571;DHT22;1295;51.130;6.732;2023-05-07T14:01:51;20.60;99.90
2571;DHT22;1295;51.130;6.732;2023-05-07T14:04:16;20.50;99.90
2571;DHT22;1295;51.130;6.732;2023-05-07T14:06:42;20.30;99.90
2571;DHT22;1295;51.130;6.732;2023-05-07T14:09:08;20.00;99.90
2571;DHT22;1295;51.130;6.732;2023-05-07T14:11:34;20.30;99.90
2571;DHT22;1295;51.130;6.732;2023-05-07T14:14:00;20.30;99.90
2571;DHT22;1295;51.130;6.732;2023-05-07T14:16:26;20.00;99.90
2571;DHT22;1295;51.130;6.732;2023-05-07T14:18:51;19.90;99.90
2571;DHT22;1295;51.130;6.732;2023-05-07T14:21:17;19.70;99.90
2571;DHT22;1295;51.130;6.732;2023-05-07T14:23:43;19.70;99.90
2571;DHT22;1295;51.130;6.732;2023-05-07T14:26:09;19.70;99.90
2571;DHT22;1295;51.130;6.732;2023-05-07T14:28:35;19.60;99.90
2571;DHT22;1295;51.130;6.732;2023-05-07T14:31:01;19.70;99.90
2571;DHT22;1295;51.130;6.732;2023-05-07T14:33:27;19.70;99.90
2571;DHT22;1295;51.130;6.732;2023-05-07T14:35:52;19.70;99.90
2571;DHT22;1295;51.130;6.732;2023-05-07T14:38:18;19.60;99.90
2571;DHT22;1295;51.130;6.732;2023-05-07T14:40:44;19.70;99.90
2571;DHT22;1295;51.130;6.732;2023-05-07T14:43:10;19.70;99.90
2571;DHT22;1295;51.130;6.732;2023-05-07T14:45:36;19.40;99.90
2571;DHT22;1295;51.130;6.732;2023-05-07T14:48:02;19.40;99.90
2571;DHT22;1295;51.130;6.732;2023-05-07T14:50:28;19.60;99.90
2571;DHT22;1295;51.130;6.732;2023-05-07T14:52:53;19.70;99.90
2571;DHT22;1295;51.130;6.732;2023-05-07T14:55:19;19.70;99.90
2571;DHT22;1295;51.130;6.732;2023-05-07T14:57:46;19.60;99.90
2571;DHT22;1295;51.130;6.732;2023-05-07T15:00:12;19.60;99.90
2571;DHT22;1295;51.130;6.732;2023-05-07T15:02:38;19.70;99.90
2571;DHT22;1295;51.130;6.732;2023-05-07T15:05:05;19.80;99.90
2571;DHT22;1295;51.130;6.732;2023-05-07T15:07:30;19.70;99.90
2571;DHT22;1295;51.130;6.732;2023-05-07T15:09:57;19.80;99.90
2571;DHT22;1295;51.130;6.732;2023-05-07T15:12:23;19.80;99.90
2571;DHT22;1295;51.130;6.732;2023-05-07T15:14:48;19.80;99.90
2571;DHT22;1295;51.130;6.732;2023-05-07T15:17:14;19.80;99.90
2571;DHT22;1295;51.130;6.732;2023-05-07T15:19:40;19.80;99.90
2571;DHT22;1295;51.130;6.732;2023-05-07T15:22:05;19.70;99.90
2571;DHT22;1295;51.130;6.732;2023-05-07T15:24:31;19.80;99.90
2571;DHT22;1295;51.130;6.732;2023-05-07T15:26:57;19.70;99.90
2571;DHT22;1295;51.130;6.732;2023-05-07T15:29:23;19.70;99.90
2571;DHT22;1295;51.130;6.732;2023-05-07T15:31:49;19.70;99.90
2571;DHT22;1295;51.130;6.732;2023-05-07T15:34:16;19.70;99.90
2571;DHT22;1295;51.130;6.732;2023-05-07T15:36:41;19.70;99.90
2571;DHT22;1295;51.130;6.732;2023-05-07T15:39:07;19.70;99.90
2571;DHT22;1295;51.130;6.732;2023-05-07T15:41:33;19.70;99.90
2571;DHT22;1295;51.130;6.732;2023-05-07T15:43:59;19.80;99.90
2571;DHT22;1295;51.130;6.732;2023-05-07T15:46:25;19.70;99.90
2571;DHT22;1295;51.130;6.732;2023-05-07T15:48:52;19.70;99.90
2571;DHT22;1295;51.130;6.732;2023-05-07T15:51:18;19.70;99.90
2571;DHT22;1295;51.130;6.732;2023-05-07T15:53:44;19.70;99.90
2571;DHT22;1295;51.130;6.732;2023-05-07T15:56:09;19.70;99.90
2571;DHT22;1295;51.130;6.732;2023-05-07T15:58:35;19.70;99.90
2571;DHT22;1295;51.130;6.732;2023-05-07T16:01:01;19.70;99.90
2571;DHT22;1295;51.130;6.732;2023-05-07T16:03:26;19.70;99.90
2571;DHT22;1295;51.130;6.732;2023-05-07T16:05:52;19.70;99.90